sensor_id;sensor_type;location;lat;lon;timestamp;temperature;humidity
48019;DHT22;33786;48.690;9.562;2023-08-12T00:01:16;18.00;99.90
48019;DHT22;33786;48.690;9.562;2023-08-12T00:03:44;18.00;99.90
48019;DHT22;33786;48.690;9.562;2023-08-12T00:06:11;18.00;99.90
48019;DHT22;33786;48.690;9.562;2023-08-12T00:08:37;17.90;99.90
48019;DHT22;33786;48.690;9.562;2023-08-12T00:11:04;17.90;99.90
48019;DHT22;33786;48.690;9.562;2023-08-12T00:13:31;17.80;99.90
48019;DHT22;33786;48.690;9.562;2023-08-12T00:15:58;17.80;99.90
48019;DHT22;33786;48.690;9.562;2023-08-12T00:18:25;17.80;99.90
48019;DHT22;33786;48.690;9.562;2023-08-12T00:20:52;17.70;99.90
48019;DHT22;33786;48.690;9.562;2023-08-12T00:23:19;17.70;99.90
48019;DHT22;33786;48.690;9.562;2023-08-12T00:25:45;17.60;99.90
48019;DHT22;33786;48.690;9.562;2023-08-12T00:28:12;17.60;99.90
48019;DHT22;33786;48.690;9.562;2023-08-12T00:30:39;17.50;99.90
48019;DHT22;33786;48.690;9.562;2023-08-12T00:33:06;17.50;99.90
48019;DHT22;33786;48.690;9.562;2023-08-12T00:35:33;17.50;99.90
48019;DHT22;33786;48.690;9.562;2023-08-12T00:38:00;17.50;99.90
48019;DHT22;33786;48.690;9.562;2023-08-12T00:40:26;17.50;99.90
48019;DHT22;33786;48.690;9.562;2023-08-12T00:42:53;17.50;99.90
48019;DHT22;33786;48.690;9.562;2023-08-12T00:45:20;17.40;99.90
48019;DHT22;33786;48.690;9.562;2023-08-12T00:47:47;17.40;99.90
48019;DHT22;33786;48.690;9.562;2023-08-12T00:50:14;17.40;99.90
48019;DHT22;33786;48.690;9.562;2023-08-12T00:52:41;17.40;99.90
48019;DHT22;33786;48.690;9.562;2023-08-12T00:55:08;17.40;99.90
48019;DHT22;33786;48.690;9.562;2023-08-12T00:57:36;17.40;99.90
48019;DHT22;33786;48.690;9.562;2023-08-12T01:00:03;17.40;99.90
48019;DHT22;33786;48.690;9.562;2023-08-12T01:02:30;17.40;99.90
48019;DHT22;33786;48.690;9.562;2023-08-12T01:04:58;17.40;99.90
48019;DHT22;33786;48.690;9.562;2023-08-12T01:07:25;17.30;99.90
48019;DHT22;33786;48.690;9.562;2023-08-12T01:09:52;17.30;99.90
48019;DHT22;33786;48.690;9.562;2023-08-12T01:12:29;17.20;99.90
48019;DHT22;33786;48.690;9.562;2023-08-12T01:15:01;17.10;99.90
48019;DHT22;33786;48.690;9.562;2023-08-12T01:17:30;17.10;99.90
48019;DHT22;33786;48.690;9.562;2023-08-12T01:19:58;17.10;99.90
48019;DHT22;33786;48.690;9.562;2023-08-12T01:22:25;17.10;99.90
48019;DHT22;33786;48.690;9.562;2023-08-12T01:24:53;17.10;99.90
48019;DHT22;33786;48.690;9.562;2023-08-12T01:27:20;17.00;99.90
48019;DHT22;33786;48.690;9.562;2023-08-12T01:29:50;17.00;99.90
48019;DHT22;33786;48.690;9.562;2023-08-12T01:37:17;16.90;99.90
48019;DHT22;33786;48.690;9.562;2023-08-12T01:39:44;16.90;99.90
48019;DHT22;33786;48.690;9.562;2023-08-12T01:42:11;16.80;99.90
48019;DHT22;33786;48.690;9.562;2023-08-12T01:44:38;16.80;99.90
48019;DHT22;33786;48.690;9.562;2023-08-12T01:47:05;16.80;99.90
48019;DHT22;33786;48.690;9.562;2023-08-12T01:49:32;16.80;99.90
48019;DHT22;33786;48.690;9.562;2023-08-12T01:51:59;16.80;99.90
48019;DHT22;33786;48.690;9.562;2023-08-12T01:54:25;16.80;99.90
48019;DHT22;33786;48.690;9.562;2023-08-12T01:56:52;16.70;99.90
48019;DHT22;33786;48.690;9.562;2023-08-12T01:59:19;16.70;99.90
48019;DHT22;33786;48.690;9.562;2023-08-12T02:01:46;16.70;99.90
48019;DHT22;33786;48.690;9.562;2023-08-12T02:04:12;16.70;99.90
48019;DHT22;33786;48.690;9.562;2023-08-12T02:06:39;16.60;99.90
48019;DHT22;33786;48.690;9.562;2023-08-12T02:09:06;16.60;99.90
48019;DHT22;33786;48.690;9.562;2023-08-12T02:11:33;16.50;99.90
48019;DHT22;33786;48.690;9.562;2023-08-12T02:13:59;16.50;99.90
48019;DHT22;33786;48.690;9.562;2023-08-12T02:16:26;16.50;99.90
48019;DHT22;33786;48.690;9.562;2023-08-12T02:18:53;16.50;99.90
48019;DHT22;33786;48.690;9.562;2023-08-12T02:21:20;16.50;99.90
48019;DHT22;33786;48.690;9.562;2023-08-12T02:23:47;16.40;99.90
48019;DHT22;33786;48.690;9.562;2023-08-12T02:26:13;16.40;99.90
48019;DHT22;33786;48.690;9.562;2023-08-12T02:28:42;16.40;99.90
48019;DHT22;33786;48.690;9.562;2023-08-12T02:31:09;16.40;99.90
48019;DHT22;33786;48.690;9.562;2023-08-12T02:33:36;16.40;99.90
48019;DHT22;33786;48.690;9.562;2023-08-12T02:36:02;16.40;99.90
48019;DHT22;33786;48.690;9.562;2023-08-12T02:38:29;16.40;99.90
48019;DHT22;33786;48.690;9.562;2023-08-12T02:40:56;16.40;99.90
48019;DHT22;33786;48.690;9.562;2023-08-12T02:43:23;16.40;99.90
48019;DHT22;33786;48.690;9.562;2023-08-12T02:45:49;16.40;99.90
48019;DHT22;33786;48.690;9.562;2023-08-12T02:48:16;16.50;99.90
48019;DHT22;33786;48.690;9.562;2023-08-12T02:50:43;16.50;99.90
48019;DHT22;33786;48.690;9.562;2023-08-12T02:53:10;16.60;99.90
48019;DHT22;33786;48.690;9.562;2023-08-12T02:55:36;16.70;99.90
48019;DHT22;33786;48.690;9.562;2023-08-12T02:58:04;16.70;99.90
48019;DHT22;33786;48.690;9.562;2023-08-12T03:00:30;16.80;99.90
48019;DHT22;33786;48.690;9.562;2023-08-12T03:02:57;16.80;99.90
48019;DHT22;33786;48.690;9.562;2023-08-12T03:05:24;16.90;99.90
48019;DHT22;33786;48.690;9.562;2023-08-12T03:07:51;16.90;99.90
48019;DHT22;33786;48.690;9.562;2023-08-12T03:10:18;16.80;99.90
48019;DHT22;33786;48.690;9.562;2023-08-12T03:12:45;16.90;99.90
48019;DHT22;33786;48.690;9.562;2023-08-12T03:15:12;17.00;99.90
48019;DHT22;33786;48.690;9.562;2023-08-12T03:17:39;17.00;99.90
48019;DHT22;33786;48.690;9.562;2023-08-12T03:20:06;17.00;99.90
48019;DHT22;33786;48.690;9.562;2023-08-12T03:22:35;17.10;99.90
48019;DHT22;33786;48.690;9.562;2023-08-12T03:25:03;17.10;99.90
48019;DHT22;33786;48.690;9.562;2023-08-12T03:27:30;17.10;99.90
48019;DHT22;33786;48.690;9.562;2023-08-12T03:29:57;17.20;99.90
48019;DHT22;33786;48.690;9.562;2023-08-12T03:32:24;17.20;99.90
48019;DHT22;33786;48.690;9.562;2023-08-12T03:34:52;17.20;99.90
48019;DHT22;33786;48.690;9.562;2023-08-12T03:37:19;17.20;99.90
48019;DHT22;33786;48.690;9.562;2023-08-12T03:39:45;17.20;99.90
48019;DHT22;33786;48.690;9.562;2023-08-12T03:42:12;17.20;99.90
48019;DHT22;33786;48.690;9.562;2023-08-12T03:44:39;17.20;99.90
48019;DHT22;33786;48.690;9.562;2023-08-12T03:47:06;17.20;99.90
48019;DHT22;33786;48.690;9.562;2023-08-12T03:49:32;17.20;99.90
48019;DHT22;33786;48.690;9.562;2023-08-12T03:51:59;17.20;99.90
48019;DHT22;33786;48.690;9.562;2023-08-12T03:54:26;17.20;99.90
48019;DHT22;33786;48.690;9.562;2023-08-12T03:56:53;17.20;99.90
48019;DHT22;33786;48.690;9.562;2023-08-12T03:59:19;17.20;99.90
48019;DHT22;33786;48.690;9.562;2023-08-12T04:01:46;17.20;99.90
48019;DHT22;33786;48.690;9.562;2023-08-12T04:04:13;17.20;99.90
48019;DHT22;33786;48.690;9.562;2023-08-12T04:06:40;17.20;99.90
48019;DHT22;33786;48.690;9.562;2023-08-12T04:09:06;17.30;99.90
48019;DHT22;33786;48.690;9.562;2023-08-12T04:11:33;17.60;99.90
48019;DHT22;33786;48.690;9.562;2023-08-12T04:14:00;17.30;99.90
48019;DHT22;33786;48.690;9.562;2023-08-12T04:16:27;17.40;99.90
48019;DHT22;33786;48.690;9.562;2023-08-12T04:18:53;17.40;99.90
48019;DHT22;33786;48.690;9.562;2023-08-12T04:21:20;17.40;99.90
48019;DHT22;33786;48.690;9.562;2023-08-12T04:23:47;17.50;99.90
48019;DHT22;33786;48.690;9.562;2023-08-12T04:26:14;17.60;99.90
48019;DHT22;33786;48.690;9.562;2023-08-12T04:28:40;17.60;99.90
48019;DHT22;33786;48.690;9.562;2023-08-12T04:31:07;17.80;99.90
48019;DHT22;33786;48.690;9.562;2023-08-12T04:33:34;18.10;99.90
48019;DHT22;33786;48.690;9.562;2023-08-12T04:36:01;18.50;99.90
48019;DHT22;33786;48.690;9.562;2023-08-12T04:38:28;18.80;99.90
48019;DHT22;33786;48.690;9.562;2023-08-12T04:40:54;19.10;99.90
48019;DHT22;33786;48.690;9.562;2023-08-12T04:43:22;19.90;99.90
48019;DHT22;33786;48.690;9.562;2023-08-12T04:45:48;20.70;99.90
48019;DHT22;33786;48.690;9.562;2023-08-12T04:48:15;21.20;99.90
48019;DHT22;33786;48.690;9.562;2023-08-12T04:50:42;21.20;99.90
48019;DHT22;33786;48.690;9.562;2023-08-12T04:53:09;21.10;99.90
48019;DHT22;33786;48.690;9.562;2023-08-12T04:55:36;20.90;99.90
48019;DHT22;33786;48.690;9.562;2023-08-12T04:58:02;20.50;99.90
48019;DHT22;33786;48.690;9.562;2023-08-12T05:00:29;20.10;99.90
48019;DHT22;33786;48.690;9.562;2023-08-12T05:02:57;19.90;99.90
48019;DHT22;33786;48.690;9.562;2023-08-12T05:05:25;19.70;99.90
48019;DHT22;33786;48.690;9.562;2023-08-12T05:07:52;19.60;99.90
48019;DHT22;33786;48.690;9.562;2023-08-12T05:10:18;19.50;99.90
48019;DHT22;33786;48.690;9.562;2023-08-12T05:12:45;19.40;99.90
48019;DHT22;33786;48.690;9.562;2023-08-12T05:15:14;19.30;99.90
48019;DHT22;33786;48.690;9.562;2023-08-12T05:17:40;19.20;99.90
48019;DHT22;33786;48.690;9.562;2023-08-12T05:20:07;19.30;99.90
48019;DHT22;33786;48.690;9.562;2023-08-12T05:22:34;19.30;99.90
48019;DHT22;33786;48.690;9.562;2023-08-12T05:25:01;19.30;99.90
48019;DHT22;33786;48.690;9.562;2023-08-12T05:27:28;19.20;99.90
48019;DHT22;33786;48.690;9.562;2023-08-12T05:29:55;19.30;99.90
48019;DHT22;33786;48.690;9.562;2023-08-12T05:32:21;19.30;99.90
48019;DHT22;33786;48.690;9.562;2023-08-12T05:34:54;19.40;99.90
48019;DHT22;33786;48.690;9.562;2023-08-12T05:37:21;19.40;99.90
48019;DHT22;33786;48.690;9.562;2023-08-12T05:39:48;19.40;99.90
48019;DHT22;33786;48.690;9.562;2023-08-12T05:42:15;19.50;99.90
48019;DHT22;33786;48.690;9.562;2023-08-12T05:44:42;19.40;99.90
48019;DHT22;33786;48.690;9.562;2023-08-12T05:47:09;19.40;99.90
48019;DHT22;33786;48.690;9.562;2023-08-12T05:49:35;19.50;99.90
48019;DHT22;33786;48.690;9.562;2023-08-12T05:52:02;19.60;99.90
48019;DHT22;33786;48.690;9.562;2023-08-12T05:54:29;19.80;99.90
48019;DHT22;33786;48.690;9.562;2023-08-12T05:56:56;20.00;99.90
48019;DHT22;33786;48.690;9.562;2023-08-12T05:59:22;20.30;99.90
48019;DHT22;33786;48.690;9.562;2023-08-12T06:01:49;20.80;99.90
48019;DHT22;33786;48.690;9.562;2023-08-12T06:04:16;22.00;99.90
48019;DHT22;33786;48.690;9.562;2023-08-12T06:06:42;22.60;99.90
48019;DHT22;33786;48.690;9.562;2023-08-12T06:09:09;22.40;99.90
48019;DHT22;33786;48.690;9.562;2023-08-12T06:11:36;22.10;99.90
48019;DHT22;33786;48.690;9.562;2023-08-12T06:14:03;22.10;99.90
48019;DHT22;33786;48.690;9.562;2023-08-12T06:16:29;22.00;99.90
48019;DHT22;33786;48.690;9.562;2023-08-12T06:18:56;22.00;99.90
48019;DHT22;33786;48.690;9.562;2023-08-12T06:21:23;22.00;99.90
48019;DHT22;33786;48.690;9.562;2023-08-12T06:23:50;21.90;99.90
48019;DHT22;33786;48.690;9.562;2023-08-12T06:26:16;21.90;99.90
48019;DHT22;33786;48.690;9.562;2023-08-12T06:28:43;21.90;99.90
48019;DHT22;33786;48.690;9.562;2023-08-12T06:31:10;22.10;99.90
48019;DHT22;33786;48.690;9.562;2023-08-12T06:33:37;22.20;99.90
48019;DHT22;33786;48.690;9.562;2023-08-12T06:36:03;22.50;99.90
48019;DHT22;33786;48.690;9.562;2023-08-12T06:38:30;22.60;99.90
48019;DHT22;33786;48.690;9.562;2023-08-12T06:40:57;22.90;99.90
48019;DHT22;33786;48.690;9.562;2023-08-12T06:43:24;23.80;99.90
48019;DHT22;33786;48.690;9.562;2023-08-12T06:45:54;24.60;99.90
48019;DHT22;33786;48.690;9.562;2023-08-12T06:48:21;24.60;99.90
48019;DHT22;33786;48.690;9.562;2023-08-12T06:50:54;26.30;99.90
48019;DHT22;33786;48.690;9.562;2023-08-12T06:53:22;27.40;99.90
48019;DHT22;33786;48.690;9.562;2023-08-12T06:55:49;27.10;99.40
48019;DHT22;33786;48.690;9.562;2023-08-12T06:58:15;26.00;99.90
48019;DHT22;33786;48.690;9.562;2023-08-12T07:00:42;25.50;99.90
48019;DHT22;33786;48.690;9.562;2023-08-12T07:03:09;25.30;99.90
48019;DHT22;33786;48.690;9.562;2023-08-12T07:05:36;25.20;99.90
48019;DHT22;33786;48.690;9.562;2023-08-12T07:08:02;24.70;99.90
48019;DHT22;33786;48.690;9.562;2023-08-12T07:10:29;24.30;99.90
48019;DHT22;33786;48.690;9.562;2023-08-12T07:12:56;24.20;99.90
48019;DHT22;33786;48.690;9.562;2023-08-12T07:15:23;24.30;99.90
48019;DHT22;33786;48.690;9.562;2023-08-12T07:17:49;24.30;99.90
48019;DHT22;33786;48.690;9.562;2023-08-12T07:20:16;24.50;99.90
48019;DHT22;33786;48.690;9.562;2023-08-12T07:22:43;24.80;99.90
48019;DHT22;33786;48.690;9.562;2023-08-12T07:25:10;25.70;99.90
48019;DHT22;33786;48.690;9.562;2023-08-12T07:27:37;28.70;97.00
48019;DHT22;33786;48.690;9.562;2023-08-12T07:30:03;32.30;92.50
48019;DHT22;33786;48.690;9.562;2023-08-12T07:32:30;34.10;87.30
48019;DHT22;33786;48.690;9.562;2023-08-12T07:34:57;35.50;82.60
48019;DHT22;33786;48.690;9.562;2023-08-12T07:37:24;35.10;81.00
48019;DHT22;33786;48.690;9.562;2023-08-12T07:39:51;34.60;81.70
48019;DHT22;33786;48.690;9.562;2023-08-12T07:42:18;33.70;82.50
48019;DHT22;33786;48.690;9.562;2023-08-12T07:44:44;33.20;83.80
48019;DHT22;33786;48.690;9.562;2023-08-12T07:47:11;32.00;85.80
48019;DHT22;33786;48.690;9.562;2023-08-12T07:49:38;33.20;84.70
48019;DHT22;33786;48.690;9.562;2023-08-12T07:52:05;33.60;84.80
48019;DHT22;33786;48.690;9.562;2023-08-12T07:54:32;34.20;81.50
48019;DHT22;33786;48.690;9.562;2023-08-12T07:56:58;33.40;82.60
48019;DHT22;33786;48.690;9.562;2023-08-12T07:59:25;32.20;84.40
48019;DHT22;33786;48.690;9.562;2023-08-12T08:01:52;31.60;86.50
48019;DHT22;33786;48.690;9.562;2023-08-12T08:04:19;30.70;88.60
48019;DHT22;33786;48.690;9.562;2023-08-12T08:06:45;31.10;88.00
48019;DHT22;33786;48.690;9.562;2023-08-12T08:09:16;31.80;87.00
48019;DHT22;33786;48.690;9.562;2023-08-12T08:11:42;32.60;86.30
48019;DHT22;33786;48.690;9.562;2023-08-12T08:14:09;32.60;84.20
48019;DHT22;33786;48.690;9.562;2023-08-12T08:16:36;32.70;85.00
48019;DHT22;33786;48.690;9.562;2023-08-12T08:19:03;32.40;84.00
48019;DHT22;33786;48.690;9.562;2023-08-12T08:21:30;32.40;84.50
48019;DHT22;33786;48.690;9.562;2023-08-12T08:23:57;32.60;83.90
48019;DHT22;33786;48.690;9.562;2023-08-12T08:26:23;32.70;85.10
48019;DHT22;33786;48.690;9.562;2023-08-12T08:28:50;32.50;86.00
48019;DHT22;33786;48.690;9.562;2023-08-12T08:31:17;32.60;84.60
48019;DHT22;33786;48.690;9.562;2023-08-12T08:33:44;32.20;87.00
48019;DHT22;33786;48.690;9.562;2023-08-12T08:36:11;33.10;84.10
48019;DHT22;33786;48.690;9.562;2023-08-12T08:38:37;33.20;84.60
48019;DHT22;33786;48.690;9.562;2023-08-12T08:41:05;33.70;82.90
48019;DHT22;33786;48.690;9.562;2023-08-12T08:43:32;33.70;82.30
48019;DHT22;33786;48.690;9.562;2023-08-12T08:46:01;32.80;83.60
48019;DHT22;33786;48.690;9.562;2023-08-12T08:48:28;32.00;83.40
48019;DHT22;33786;48.690;9.562;2023-08-12T08:50:55;31.30;85.60
48019;DHT22;33786;48.690;9.562;2023-08-12T08:53:22;31.10;87.50
48019;DHT22;33786;48.690;9.562;2023-08-12T08:55:49;31.30;85.90
48019;DHT22;33786;48.690;9.562;2023-08-12T08:58:16;32.00;85.50
48019;DHT22;33786;48.690;9.562;2023-08-12T09:00:48;32.00;84.80
48019;DHT22;33786;48.690;9.562;2023-08-12T09:03:15;32.20;85.20
48019;DHT22;33786;48.690;9.562;2023-08-12T09:05:42;32.40;85.40
48019;DHT22;33786;48.690;9.562;2023-08-12T09:08:10;32.50;85.40
48019;DHT22;33786;48.690;9.562;2023-08-12T09:10:38;33.00;84.20
48019;DHT22;33786;48.690;9.562;2023-08-12T09:13:06;32.70;83.50
48019;DHT22;33786;48.690;9.562;2023-08-12T09:15:33;32.80;83.10
48019;DHT22;33786;48.690;9.562;2023-08-12T09:18:00;33.00;83.80
48019;DHT22;33786;48.690;9.562;2023-08-12T09:20:27;33.80;82.10
48019;DHT22;33786;48.690;9.562;2023-08-12T09:22:57;33.90;80.20
48019;DHT22;33786;48.690;9.562;2023-08-12T09:25:25;33.80;81.00
48019;DHT22;33786;48.690;9.562;2023-08-12T09:27:53;34.20;80.70
48019;DHT22;33786;48.690;9.562;2023-08-12T09:30:21;34.50;82.00
48019;DHT22;33786;48.690;9.562;2023-08-12T09:32:58;35.10;81.30
48019;DHT22;33786;48.690;9.562;2023-08-12T09:35:40;36.00;82.30
48019;DHT22;33786;48.690;9.562;2023-08-12T09:38:07;36.40;78.30
48019;DHT22;33786;48.690;9.562;2023-08-12T09:40:35;36.90;77.40
48019;DHT22;33786;48.690;9.562;2023-08-12T09:43:03;37.30;75.50
48019;DHT22;33786;48.690;9.562;2023-08-12T09:45:30;37.20;76.80
48019;DHT22;33786;48.690;9.562;2023-08-12T09:47:58;37.40;75.60
48019;DHT22;33786;48.690;9.562;2023-08-12T09:50:25;37.30;75.40
48019;DHT22;33786;48.690;9.562;2023-08-12T09:52:53;36.80;78.60
48019;DHT22;33786;48.690;9.562;2023-08-12T09:55:20;36.50;76.90
48019;DHT22;33786;48.690;9.562;2023-08-12T09:57:48;36.30;79.70
48019;DHT22;33786;48.690;9.562;2023-08-12T10:00:16;36.10;77.80
48019;DHT22;33786;48.690;9.562;2023-08-12T10:02:45;35.60;78.00
48019;DHT22;33786;48.690;9.562;2023-08-12T10:05:13;35.60;78.10
48019;DHT22;33786;48.690;9.562;2023-08-12T10:07:41;35.40;78.00
48019;DHT22;33786;48.690;9.562;2023-08-12T10:10:08;35.20;79.40
48019;DHT22;33786;48.690;9.562;2023-08-12T10:12:35;35.00;77.80
48019;DHT22;33786;48.690;9.562;2023-08-12T10:15:03;34.90;79.60
48019;DHT22;33786;48.690;9.562;2023-08-12T10:17:30;34.70;80.60
48019;DHT22;33786;48.690;9.562;2023-08-12T10:20:12;34.60;80.50
48019;DHT22;33786;48.690;9.562;2023-08-12T10:22:39;34.20;82.20
48019;DHT22;33786;48.690;9.562;2023-08-12T10:25:07;34.40;84.30
48019;DHT22;33786;48.690;9.562;2023-08-12T10:27:35;34.70;82.50
48019;DHT22;33786;48.690;9.562;2023-08-12T10:30:05;34.80;79.70
48019;DHT22;33786;48.690;9.562;2023-08-12T10:32:32;34.80;78.90
48019;DHT22;33786;48.690;9.562;2023-08-12T10:34:59;34.70;77.80
48019;DHT22;33786;48.690;9.562;2023-08-12T10:37:26;34.50;77.90
48019;DHT22;33786;48.690;9.562;2023-08-12T10:39:54;34.20;80.20
48019;DHT22;33786;48.690;9.562;2023-08-12T10:42:40;33.90;81.00
48019;DHT22;33786;48.690;9.562;2023-08-12T10:45:08;33.90;80.60
48019;DHT22;33786;48.690;9.562;2023-08-12T10:47:43;33.90;81.30
48019;DHT22;33786;48.690;9.562;2023-08-12T10:50:19;33.90;81.30
48019;DHT22;33786;48.690;9.562;2023-08-12T10:52:47;33.90;82.40
48019;DHT22;33786;48.690;9.562;2023-08-12T10:55:24;33.90;81.10
48019;DHT22;33786;48.690;9.562;2023-08-12T10:57:52;33.70;80.50
48019;DHT22;33786;48.690;9.562;2023-08-12T11:00:25;34.20;81.30
48019;DHT22;33786;48.690;9.562;2023-08-12T11:02:53;34.50;82.30
48019;DHT22;33786;48.690;9.562;2023-08-12T11:05:20;34.50;79.00
48019;DHT22;33786;48.690;9.562;2023-08-12T11:10:21;34.50;77.40
48019;DHT22;33786;48.690;9.562;2023-08-12T11:12:52;34.30;76.70
48019;DHT22;33786;48.690;9.562;2023-08-12T11:18:09;33.80;78.40
48019;DHT22;33786;48.690;9.562;2023-08-12T11:20:36;33.20;78.90
48019;DHT22;33786;48.690;9.562;2023-08-12T11:23:04;32.90;79.80
48019;DHT22;33786;48.690;9.562;2023-08-12T11:25:31;33.10;80.40
48019;DHT22;33786;48.690;9.562;2023-08-12T11:27:58;33.50;82.80
48019;DHT22;33786;48.690;9.562;2023-08-12T11:30:25;33.40;79.30
48019;DHT22;33786;48.690;9.562;2023-08-12T11:32:54;33.40;78.00
48019;DHT22;33786;48.690;9.562;2023-08-12T11:35:22;33.30;77.90
48019;DHT22;33786;48.690;9.562;2023-08-12T11:37:50;33.40;78.50
48019;DHT22;33786;48.690;9.562;2023-08-12T11:40:19;33.40;80.00
48019;DHT22;33786;48.690;9.562;2023-08-12T11:42:47;33.40;77.30
48019;DHT22;33786;48.690;9.562;2023-08-12T11:45:15;33.60;79.10
48019;DHT22;33786;48.690;9.562;2023-08-12T11:47:42;33.40;76.40
48019;DHT22;33786;48.690;9.562;2023-08-12T11:50:10;33.40;76.80
48019;DHT22;33786;48.690;9.562;2023-08-12T11:52:37;33.70;78.10
48019;DHT22;33786;48.690;9.562;2023-08-12T11:55:07;33.90;76.80
48019;DHT22;33786;48.690;9.562;2023-08-12T11:57:35;34.20;78.30
48019;DHT22;33786;48.690;9.562;2023-08-12T12:00:06;34.70;77.10
48019;DHT22;33786;48.690;9.562;2023-08-12T12:02:51;34.60;75.40
48019;DHT22;33786;48.690;9.562;2023-08-12T12:05:20;34.30;76.40
48019;DHT22;33786;48.690;9.562;2023-08-12T12:07:50;34.30;76.30
48019;DHT22;33786;48.690;9.562;2023-08-12T12:10:31;34.20;77.50
48019;DHT22;33786;48.690;9.562;2023-08-12T12:13:02;34.30;79.00
48019;DHT22;33786;48.690;9.562;2023-08-12T12:15:30;34.20;75.30
48019;DHT22;33786;48.690;9.562;2023-08-12T12:17:57;34.10;75.70
48019;DHT22;33786;48.690;9.562;2023-08-12T12:20:24;34.00;76.70
48019;DHT22;33786;48.690;9.562;2023-08-12T12:22:53;33.70;74.80
48019;DHT22;33786;48.690;9.562;2023-08-12T12:25:22;33.30;75.20
48019;DHT22;33786;48.690;9.562;2023-08-12T12:27:49;32.90;74.90
48019;DHT22;33786;48.690;9.562;2023-08-12T12:30:16;32.40;73.30
48019;DHT22;33786;48.690;9.562;2023-08-12T12:32:43;32.00;73.90
48019;DHT22;33786;48.690;9.562;2023-08-12T12:35:10;32.10;74.50
48019;DHT22;33786;48.690;9.562;2023-08-12T12:37:37;32.30;74.50
48019;DHT22;33786;48.690;9.562;2023-08-12T12:40:04;32.20;72.90
48019;DHT22;33786;48.690;9.562;2023-08-12T12:42:32;32.10;73.80
48019;DHT22;33786;48.690;9.562;2023-08-12T12:44:58;31.80;73.90
48019;DHT22;33786;48.690;9.562;2023-08-12T12:47:25;31.50;75.00
48019;DHT22;33786;48.690;9.562;2023-08-12T12:49:52;31.00;75.60
48019;DHT22;33786;48.690;9.562;2023-08-12T12:52:19;30.90;76.20
48019;DHT22;33786;48.690;9.562;2023-08-12T12:54:46;30.70;77.50
48019;DHT22;33786;48.690;9.562;2023-08-12T12:57:12;30.50;77.80
48019;DHT22;33786;48.690;9.562;2023-08-12T12:59:39;30.10;80.10
48019;DHT22;33786;48.690;9.562;2023-08-12T13:02:06;29.80;85.50
48019;DHT22;33786;48.690;9.562;2023-08-12T13:04:33;29.50;90.40
48019;DHT22;33786;48.690;9.562;2023-08-12T13:07:00;28.60;92.70
48019;DHT22;33786;48.690;9.562;2023-08-12T13:09:26;27.90;94.10
48019;DHT22;33786;48.690;9.562;2023-08-12T13:11:53;27.50;94.70
48019;DHT22;33786;48.690;9.562;2023-08-12T13:14:23;26.70;96.80
48019;DHT22;33786;48.690;9.562;2023-08-12T13:16:50;25.90;99.20
48019;DHT22;33786;48.690;9.562;2023-08-12T13:19:17;25.60;99.90
48019;DHT22;33786;48.690;9.562;2023-08-12T13:21:43;25.30;99.90
48019;DHT22;33786;48.690;9.562;2023-08-12T13:24:10;24.80;99.90
48019;DHT22;33786;48.690;9.562;2023-08-12T13:26:42;24.40;99.90
48019;DHT22;33786;48.690;9.562;2023-08-12T13:29:09;24.30;99.90
48019;DHT22;33786;48.690;9.562;2023-08-12T13:31:36;24.10;99.90
48019;DHT22;33786;48.690;9.562;2023-08-12T13:34:03;24.00;99.90
48019;DHT22;33786;48.690;9.562;2023-08-12T13:36:30;24.00;99.90
48019;DHT22;33786;48.690;9.562;2023-08-12T13:38:57;23.90;99.90
48019;DHT22;33786;48.690;9.562;2023-08-12T13:41:26;23.80;99.90
48019;DHT22;33786;48.690;9.562;2023-08-12T13:43:53;23.50;99.90
48019;DHT22;33786;48.690;9.562;2023-08-12T13:46:20;23.50;99.90
48019;DHT22;33786;48.690;9.562;2023-08-12T13:48:46;23.30;99.90
48019;DHT22;33786;48.690;9.562;2023-08-12T13:51:13;23.20;99.90
48019;DHT22;33786;48.690;9.562;2023-08-12T13:53:40;23.10;99.90
48019;DHT22;33786;48.690;9.562;2023-08-12T13:56:07;23.10;99.90
48019;DHT22;33786;48.690;9.562;2023-08-12T13:58:33;23.10;99.90
48019;DHT22;33786;48.690;9.562;2023-08-12T14:01:00;23.10;99.90
48019;DHT22;33786;48.690;9.562;2023-08-12T14:03:27;23.10;99.90
48019;DHT22;33786;48.690;9.562;2023-08-12T14:05:54;23.00;99.90
48019;DHT22;33786;48.690;9.562;2023-08-12T14:08:21;23.30;99.90
48019;DHT22;33786;48.690;9.562;2023-08-12T14:10:48;23.40;99.90
48019;DHT22;33786;48.690;9.562;2023-08-12T14:13:16;23.40;99.90
48019;DHT22;33786;48.690;9.562;2023-08-12T14:15:43;23.60;99.90
48019;DHT22;33786;48.690;9.562;2023-08-12T14:18:10;23.80;99.90
48019;DHT22;33786;48.690;9.562;2023-08-12T14:20:36;24.30;99.90
48019;DHT22;33786;48.690;9.562;2023-08-12T14:23:03;24.60;99.90
48019;DHT22;33786;48.690;9.562;2023-08-12T14:25:30;24.90;99.90
48019;DHT22;33786;48.690;9.562;2023-08-12T14:27:57;25.20;99.90
48019;DHT22;33786;48.690;9.562;2023-08-12T14:30:24;25.40;99.90
48019;DHT22;33786;48.690;9.562;2023-08-12T14:32:52;25.90;99.90
48019;DHT22;33786;48.690;9.562;2023-08-12T14:35:19;26.30;99.90
48019;DHT22;33786;48.690;9.562;2023-08-12T14:37:46;26.60;99.90
48019;DHT22;33786;48.690;9.562;2023-08-12T14:40:13;27.00;99.90
48019;DHT22;33786;48.690;9.562;2023-08-12T14:42:39;27.30;99.90
48019;DHT22;33786;48.690;9.562;2023-08-12T14:45:06;27.60;99.90
48019;DHT22;33786;48.690;9.562;2023-08-12T14:47:33;28.00;99.90
48019;DHT22;33786;48.690;9.562;2023-08-12T14:50:00;28.10;99.90
48019;DHT22;33786;48.690;9.562;2023-08-12T14:52:27;28.00;99.90
48019;DHT22;33786;48.690;9.562;2023-08-12T14:54:54;28.00;99.90
48019;DHT22;33786;48.690;9.562;2023-08-12T14:57:21;27.50;99.90
48019;DHT22;33786;48.690;9.562;2023-08-12T14:59:47;27.50;99.90
48019;DHT22;33786;48.690;9.562;2023-08-12T15:02:19;27.30;99.90
48019;DHT22;33786;48.690;9.562;2023-08-12T15:04:46;27.30;99.90
48019;DHT22;33786;48.690;9.562;2023-08-12T15:07:13;27.30;99.90
48019;DHT22;33786;48.690;9.562;2023-08-12T15:09:41;27.30;99.90
48019;DHT22;33786;48.690;9.562;2023-08-12T15:12:07;27.40;99.90
48019;DHT22;33786;48.690;9.562;2023-08-12T15:14:34;27.20;99.90
48019;DHT22;33786;48.690;9.562;2023-08-12T15:17:01;27.00;99.90
48019;DHT22;33786;48.690;9.562;2023-08-12T15:19:28;26.90;99.90
48019;DHT22;33786;48.690;9.562;2023-08-12T15:21:54;26.70;99.90
48019;DHT22;33786;48.690;9.562;2023-08-12T15:24:21;26.60;99.90
48019;DHT22;33786;48.690;9.562;2023-08-12T15:26:48;26.80;99.90
48019;DHT22;33786;48.690;9.562;2023-08-12T15:29:15;26.90;99.90
48019;DHT22;33786;48.690;9.562;2023-08-12T15:31:41;27.10;99.90
48019;DHT22;33786;48.690;9.562;2023-08-12T15:34:08;27.20;99.90
48019;DHT22;33786;48.690;9.562;2023-08-12T15:36:35;27.20;99.90
48019;DHT22;33786;48.690;9.562;2023-08-12T15:39:02;27.20;99.90
48019;DHT22;33786;48.690;9.562;2023-08-12T15:41:29;27.00;99.90